createdAt,value
2023-01-15T00:02:18.828Z,10.60
2023-01-15T00:04:47.309Z,11.30
2023-01-15T00:07:15.687Z,11.70
2023-01-15T00:09:44.064Z,11.40
2023-01-15T00:12:12.344Z,11.20
2023-01-15T00:14:40.818Z,11.10
2023-01-15T00:17:09.208Z,9.30
2023-01-15T00:19:37.787Z,9.20
2023-01-15T00:22:06.169Z,9.50
2023-01-15T00:24:53.084Z,10.70
2023-01-15T00:27:40.043Z,11.30
2023-01-15T00:30:12.368Z,15.20
2023-01-15T00:32:42.281Z,11.00
2023-01-15T00:35:31.034Z,11.80
2023-01-15T00:38:00.539Z,11.10
2023-01-15T00:40:28.721Z,10.40
2023-01-15T00:42:57.009Z,11.40
2023-01-15T00:45:25.373Z,9.90
2023-01-15T00:47:53.878Z,12.10
2023-01-15T00:50:22.250Z,11.50
2023-01-15T00:52:50.610Z,11.90
2023-01-15T00:55:19.311Z,11.00
2023-01-15T00:57:47.578Z,11.20
2023-01-15T01:00:16.385Z,10.30
2023-01-15T01:02:44.661Z,12.70
2023-01-15T01:05:13.429Z,13.70
2023-01-15T01:07:41.808Z,12.30
2023-01-15T01:10:11.108Z,13.40
2023-01-15T01:12:39.386Z,10.70
2023-01-15T01:15:10.279Z,12.00
2023-01-15T01:20:08.050Z,11.60
2023-01-15T01:22:36.283Z,12.80
2023-01-15T01:25:05.081Z,12.10
2023-01-15T01:27:33.348Z,12.00
2023-01-15T01:30:01.846Z,13.40
2023-01-15T01:32:30.321Z,11.60
2023-01-15T01:34:58.689Z,12.60
2023-01-15T01:37:26.968Z,12.00
2023-01-15T01:39:55.764Z,10.00
2023-01-15T01:42:24.160Z,10.90
2023-01-15T01:44:52.413Z,12.30
2023-01-15T01:47:25.057Z,14.50
2023-01-15T01:50:02.324Z,12.10
2023-01-15T01:52:40.134Z,10.90
2023-01-15T01:55:09.894Z,17.10
2023-01-15T01:57:39.498Z,13.70
2023-01-15T02:00:11.080Z,12.70
2023-01-15T02:02:40.832Z,15.10
2023-01-15T02:05:12.286Z,13.60
2023-01-15T02:07:40.703Z,11.50
2023-01-15T02:10:17.271Z,11.70
2023-01-15T02:13:14.455Z,14.90
2023-01-15T02:15:50.891Z,12.60
2023-01-15T02:18:35.284Z,14.10
2023-01-15T02:21:29.015Z,13.60
2023-01-15T02:24:08.573Z,12.60
2023-01-15T02:27:15.461Z,14.60
2023-01-15T02:30:12.080Z,13.90
2023-01-15T02:33:18.654Z,13.10
2023-01-15T02:36:01.318Z,13.00
2023-01-15T02:38:35.187Z,14.00
2023-01-15T02:41:07.071Z,12.60
2023-01-15T02:43:38.053Z,16.50
2023-01-15T02:46:07.994Z,15.90
2023-01-15T02:48:39.391Z,13.50
2023-01-15T02:51:15.501Z,13.60
2023-01-15T02:53:48.282Z,12.70
2023-01-15T02:56:20.666Z,15.60
2023-01-15T02:58:52.079Z,16.30
2023-01-15T03:01:26.580Z,12.80
2023-01-15T03:04:07.306Z,13.20
2023-01-15T03:07:05.374Z,16.10
2023-01-15T03:09:35.302Z,12.60
2023-01-15T03:12:17.565Z,14.90
2023-01-15T03:14:54.985Z,13.20
2023-01-15T03:17:33.107Z,10.80
2023-01-15T03:20:20.845Z,9.30
2023-01-15T03:22:57.063Z,9.00
2023-01-15T03:25:29.991Z,12.90
2023-01-15T03:28:02.965Z,11.00
2023-01-15T03:30:31.291Z,10.40
2023-01-15T03:33:00.132Z,11.40
2023-01-15T03:35:47.452Z,10.70
2023-01-15T03:38:25.744Z,13.30
2023-01-15T03:41:03.163Z,10.30
2023-01-15T03:44:02.773Z,11.40
2023-01-15T03:46:43.640Z,12.00
2023-01-15T03:51:52.281Z,12.10
2023-01-15T03:54:27.300Z,11.30
2023-01-15T03:57:04.230Z,10.20
2023-01-15T03:59:40.462Z,12.20
2023-01-15T04:02:12.990Z,11.00
2023-01-15T04:04:44.344Z,9.90
2023-01-15T04:07:13.278Z,12.70
2023-01-15T04:09:42.372Z,10.50
2023-01-15T04:12:11.257Z,8.40
2023-01-15T04:14:39.543Z,8.30
2023-01-15T04:17:08.123Z,9.50
2023-01-15T04:19:36.504Z,9.50
2023-01-15T04:22:05.302Z,9.80
2023-01-15T04:24:34.283Z,11.70
2023-01-15T04:27:02.462Z,12.00
2023-01-15T04:29:30.842Z,9.10
2023-01-15T04:31:59.317Z,8.50
2023-01-15T04:34:28.830Z,8.40
2023-01-15T04:36:58.139Z,9.00
2023-01-15T04:39:26.588Z,9.30
2023-01-15T04:42:13.825Z,9.30
2023-01-15T04:44:42.531Z,9.70
2023-01-15T04:47:10.798Z,8.40
2023-01-15T04:49:39.171Z,8.30
2023-01-15T04:52:07.763Z,8.60
2023-01-15T04:54:35.936Z,9.50
2023-01-15T04:57:04.203Z,8.80
2023-01-15T04:59:33.011Z,8.50
2023-01-15T05:02:06.652Z,9.60
2023-01-15T05:04:35.534Z,10.40
2023-01-15T05:07:05.313Z,10.70
2023-01-15T05:09:34.301Z,9.10
2023-01-15T05:12:02.881Z,7.70
2023-01-15T05:14:31.570Z,8.40
2023-01-15T05:16:59.660Z,8.80
2023-01-15T05:19:27.912Z,8.90
2023-01-15T05:21:56.424Z,9.60
2023-01-15T05:24:24.877Z,8.90
2023-01-15T05:26:54.079Z,11.40
2023-01-15T05:29:22.148Z,10.00
2023-01-15T05:31:50.429Z,9.30
2023-01-15T05:34:19.150Z,8.50
2023-01-15T05:36:47.297Z,10.80
2023-01-15T05:39:15.869Z,10.00
2023-01-15T05:41:50.209Z,9.60
2023-01-15T05:44:21.545Z,10.40
2023-01-15T05:46:51.619Z,9.10
2023-01-15T05:49:22.494Z,10.80
2023-01-15T05:51:51.846Z,10.10
2023-01-15T05:54:22.942Z,10.70
2023-01-15T05:56:52.105Z,9.80
2023-01-15T05:59:22.980Z,11.40
2023-01-15T06:04:21.666Z,9.50
2023-01-15T06:06:53.752Z,11.50
2023-01-15T06:09:23.320Z,12.10
2023-01-15T06:11:53.800Z,9.90
2023-01-15T06:14:22.469Z,10.00
2023-01-15T06:16:51.047Z,9.40
2023-01-15T06:19:19.939Z,10.20
2023-01-15T06:21:49.267Z,10.90
2023-01-15T06:24:18.233Z,9.70
2023-01-15T06:26:46.929Z,11.60
2023-01-15T06:29:19.058Z,10.70
2023-01-15T06:31:49.653Z,12.20
2023-01-15T06:34:17.992Z,14.20
2023-01-15T06:36:46.284Z,17.50
2023-01-15T06:39:14.770Z,14.00
2023-01-15T06:42:01.806Z,13.30
2023-01-15T06:44:49.114Z,12.80
2023-01-15T06:47:24.224Z,10.60
2023-01-15T06:49:58.780Z,13.60
2023-01-15T06:52:28.888Z,10.80
2023-01-15T06:54:57.065Z,10.80
2023-01-15T06:57:25.534Z,12.40
2023-01-15T06:59:53.807Z,12.40
2023-01-15T07:02:22.200Z,10.40
2023-01-15T07:04:52.334Z,9.70
2023-01-15T07:07:21.544Z,14.30
2023-01-15T07:09:50.428Z,11.00
2023-01-15T07:12:19.223Z,9.40
2023-01-15T07:14:47.887Z,11.10
2023-01-15T07:17:16.043Z,12.30
2023-01-15T07:19:45.246Z,11.70
2023-01-15T07:22:13.621Z,11.30
2023-01-15T07:24:41.898Z,11.40
2023-01-15T07:27:10.275Z,10.30
2023-01-15T07:29:38.652Z,12.60
2023-01-15T07:32:07.238Z,11.00
2023-01-15T07:34:35.428Z,9.80
2023-01-15T07:37:03.803Z,11.90
2023-01-15T07:39:32.065Z,10.30
2023-01-15T07:42:19.084Z,10.90
2023-01-15T07:45:06.527Z,9.40
2023-01-15T07:47:53.635Z,15.00
2023-01-15T07:50:24.066Z,10.90
2023-01-15T07:52:53.401Z,11.10
2023-01-15T07:55:23.079Z,10.90
2023-01-15T07:57:51.856Z,10.50
2023-01-15T08:00:22.430Z,11.50
2023-01-15T08:02:51.178Z,9.80
2023-01-15T08:05:20.172Z,9.50
2023-01-15T08:07:49.368Z,10.10
2023-01-15T08:10:17.955Z,11.00
2023-01-15T08:13:05.114Z,11.00
2023-01-15T08:15:38.730Z,10.20
2023-01-15T08:18:07.592Z,10.70
2023-01-15T08:20:39.241Z,12.40
2023-01-15T08:23:07.699Z,9.80
2023-01-15T08:25:35.974Z,10.40
2023-01-15T08:28:04.869Z,12.20
2023-01-15T08:30:32.937Z,12.20
2023-01-15T08:33:03.479Z,11.10
2023-01-15T08:35:32.447Z,14.80
2023-01-15T08:38:06.046Z,13.40
2023-01-15T08:40:36.598Z,13.40
2023-01-15T08:43:04.766Z,11.80
2023-01-15T08:45:33.130Z,10.30
2023-01-15T08:48:01.548Z,15.90
2023-01-15T08:50:29.701Z,13.10
2023-01-15T08:52:57.986Z,10.50
2023-01-15T08:55:26.468Z,12.50
2023-01-15T08:57:54.850Z,11.70
2023-01-15T09:00:24.842Z,11.40
2023-01-15T09:02:53.038Z,13.60
2023-01-15T09:05:21.317Z,11.00
2023-01-15T09:07:49.695Z,12.00
2023-01-15T09:10:19.093Z,16.50
2023-01-15T09:12:47.469Z,12.80
2023-01-15T09:15:16.036Z,14.20
2023-01-15T09:17:44.532Z,11.10
2023-01-15T09:20:14.559Z,11.00
2023-01-15T09:22:43.450Z,12.40
2023-01-15T09:25:11.629Z,12.20
2023-01-15T09:27:39.893Z,13.70
2023-01-15T09:30:10.676Z,11.30
2023-01-15T09:32:38.911Z,11.70
2023-01-15T09:35:08.001Z,11.80
2023-01-15T09:37:36.084Z,10.80
2023-01-15T09:40:07.846Z,12.30
2023-01-15T09:43:05.292Z,12.10
2023-01-15T09:46:02.112Z,11.90
2023-01-15T09:48:36.503Z,12.20
2023-01-15T09:51:27.670Z,13.20
2023-01-15T09:53:58.610Z,13.50
2023-01-15T09:56:29.557Z,12.40
2023-01-15T09:59:01.718Z,14.90
2023-01-15T10:01:32.009Z,13.10
2023-01-15T10:04:11.919Z,12.50
2023-01-15T10:06:52.086Z,13.70
2023-01-15T10:09:31.683Z,14.70
2023-01-15T10:12:35.620Z,14.30
2023-01-15T10:15:16.063Z,15.00
2023-01-15T10:17:53.827Z,15.00
2023-01-15T10:20:40.163Z,14.90
2023-01-15T10:23:08.437Z,13.70
2023-01-15T10:25:49.527Z,16.70
2023-01-15T10:28:51.808Z,15.30
2023-01-15T10:31:24.667Z,14.60
2023-01-15T10:34:25.207Z,14.00
2023-01-15T10:37:11.713Z,13.30
2023-01-15T10:39:53.073Z,15.10
2023-01-15T10:42:30.698Z,16.20
2023-01-15T10:45:10.748Z,15.80
2023-01-15T10:47:41.108Z,13.30
2023-01-15T10:50:27.779Z,15.90
2023-01-15T10:53:14.087Z,17.20
2023-01-15T10:55:47.881Z,16.70
2023-01-15T10:58:34.094Z,17.00
2023-01-15T11:01:13.586Z,16.00
2023-01-15T11:03:44.755Z,15.80
2023-01-15T11:06:19.298Z,14.70
2023-01-15T11:09:11.526Z,14.90
2023-01-15T11:12:06.529Z,16.40
2023-01-15T11:15:03.075Z,16.10
2023-01-15T11:17:58.075Z,14.70
2023-01-15T11:20:34.890Z,16.30
2023-01-15T11:23:12.642Z,15.50
2023-01-15T11:25:53.625Z,16.60
2023-01-15T11:28:40.357Z,16.00
2023-01-15T11:31:10.382Z,17.40
2023-01-15T11:33:39.376Z,18.60
2023-01-15T11:36:21.923Z,17.70
2023-01-15T11:38:51.571Z,15.80
2023-01-15T11:41:51.702Z,14.80
2023-01-15T11:44:41.469Z,13.70
2023-01-15T11:47:33.608Z,12.80
2023-01-15T11:50:21.150Z,13.10
2023-01-15T11:52:53.415Z,15.40
2023-01-15T11:55:24.651Z,16.20
2023-01-15T11:57:54.157Z,12.60
2023-01-15T12:00:29.558Z,14.90
2023-01-15T12:03:15.592Z,14.60
2023-01-15T12:05:54.205Z,12.00
2023-01-15T12:08:48.802Z,12.00
2023-01-15T12:11:29.268Z,14.20
2023-01-15T12:14:16.599Z,11.40
2023-01-15T12:17:07.397Z,11.60
2023-01-15T12:19:57.178Z,12.10
2023-01-15T12:23:07.759Z,12.20
2023-01-15T12:25:58.989Z,12.30
2023-01-15T12:28:38.713Z,11.40
2023-01-15T12:31:11.421Z,9.50
2023-01-15T12:33:48.576Z,11.00
2023-01-15T12:36:23.139Z,10.70
2023-01-15T12:39:04.088Z,10.90
2023-01-15T12:41:56.110Z,10.20
2023-01-15T12:45:06.368Z,13.10
2023-01-15T12:48:02.819Z,11.90
2023-01-15T12:50:45.223Z,11.90
2023-01-15T12:53:25.672Z,10.90
2023-01-15T12:56:16.003Z,9.80
2023-01-15T12:59:05.683Z,9.00
2023-01-15T13:01:55.911Z,10.40
2023-01-15T13:04:39.999Z,10.20
2023-01-15T13:07:34.793Z,9.00
2023-01-15T13:10:19.925Z,9.40
2023-01-15T13:12:48.671Z,10.70
2023-01-15T13:15:19.431Z,9.70
2023-01-15T13:18:09.676Z,10.60
2023-01-15T13:20:46.957Z,11.70
2023-01-15T13:23:21.124Z,10.80
2023-01-15T13:26:07.782Z,10.40
2023-01-15T13:28:52.555Z,9.30
2023-01-15T13:32:00.457Z,10.80
2023-01-15T13:34:31.605Z,18.10
2023-01-15T13:37:07.000Z,10.40
2023-01-15T13:39:40.739Z,17.00
2023-01-15T13:42:32.288Z,11.30
2023-01-15T13:45:26.815Z,10.10
2023-01-15T13:48:02.551Z,10.20
2023-01-15T13:50:41.762Z,9.90
2023-01-15T13:53:37.360Z,9.30
2023-01-15T13:56:12.919Z,10.40
2023-01-15T13:58:56.483Z,10.70
2023-01-15T14:01:30.953Z,9.80
2023-01-15T14:04:04.675Z,12.00
2023-01-15T14:06:59.263Z,11.30
2023-01-15T14:09:30.316Z,10.90
2023-01-15T14:12:08.068Z,11.40
2023-01-15T14:14:55.219Z,12.10
2023-01-15T14:17:32.715Z,11.50
2023-01-15T14:20:34.182Z,9.80
2023-01-15T14:23:30.403Z,11.40
2023-01-15T14:26:05.364Z,12.50
2023-01-15T14:28:55.524Z,12.60
2023-01-15T14:31:23.824Z,12.00
2023-01-15T14:34:15.326Z,13.50
2023-01-15T14:36:56.605Z,12.40
2023-01-15T14:39:45.462Z,12.30
2023-01-15T14:42:41.495Z,14.70
2023-01-15T14:45:12.839Z,14.90
2023-01-15T14:47:48.492Z,12.20
2023-01-15T14:50:34.891Z,15.20
2023-01-15T14:53:13.646Z,15.50
2023-01-15T14:55:56.026Z,18.30
2023-01-15T14:58:48.506Z,17.10
2023-01-15T15:01:34.912Z,14.60
2023-01-15T15:04:12.275Z,14.10
2023-01-15T15:07:17.301Z,15.80
2023-01-15T15:10:00.441Z,16.40
2023-01-15T15:12:41.189Z,12.80
2023-01-15T15:15:27.902Z,14.20
2023-01-15T15:18:06.216Z,19.20
2023-01-15T15:20:47.919Z,14.80
2023-01-15T15:23:28.469Z,17.60
2023-01-15T15:26:05.717Z,17.30
2023-01-15T15:28:33.936Z,16.40
2023-01-15T15:31:02.373Z,16.90
2023-01-15T15:33:40.531Z,15.70
2023-01-15T15:36:09.617Z,19.70
2023-01-15T15:38:41.988Z,17.40
2023-01-15T15:41:12.711Z,19.00
2023-01-15T15:44:15.622Z,18.70
2023-01-15T15:47:09.192Z,19.10
2023-01-15T15:49:41.641Z,19.30
2023-01-15T15:52:28.374Z,19.20
2023-01-15T15:55:19.066Z,19.30
2023-01-15T15:57:51.940Z,20.60
2023-01-15T16:00:29.870Z,19.50
2023-01-15T16:03:04.485Z,20.80
2023-01-15T16:05:32.764Z,18.00
2023-01-15T16:08:19.259Z,18.20
2023-01-15T16:10:53.892Z,19.30
2023-01-15T16:13:35.988Z,18.00
2023-01-15T16:16:08.443Z,19.20
2023-01-15T16:18:45.051Z,20.40
2023-01-15T16:21:24.673Z,21.40
2023-01-15T16:24:03.020Z,18.80
2023-01-15T16:26:44.255Z,22.90
2023-01-15T16:29:22.179Z,21.00
2023-01-15T16:31:51.473Z,17.80
2023-01-15T16:34:24.163Z,21.10
2023-01-15T16:36:53.891Z,17.50
2023-01-15T16:39:44.256Z,15.60
2023-01-15T16:42:40.256Z,20.00
2023-01-15T16:45:25.457Z,19.30
2023-01-15T16:48:02.029Z,18.70
2023-01-15T16:50:32.897Z,18.10
2023-01-15T16:55:34.260Z,16.70
2023-01-15T16:58:14.903Z,17.00
2023-01-15T17:00:55.885Z,17.80
2023-01-15T17:05:57.187Z,18.40
2023-01-15T17:08:39.866Z,17.30
2023-01-15T17:11:22.497Z,21.70
2023-01-15T17:13:51.258Z,18.00
2023-01-15T17:16:23.424Z,19.60
2023-01-15T17:18:52.214Z,19.50
2023-01-15T17:21:27.728Z,23.10
2023-01-15T17:23:57.692Z,20.50
2023-01-15T17:26:30.171Z,19.40
2023-01-15T17:29:00.476Z,19.50
2023-01-15T17:31:31.969Z,17.00
2023-01-15T17:34:03.059Z,21.10
2023-01-15T17:36:33.087Z,21.10
2023-01-15T17:39:01.892Z,15.40
2023-01-15T17:41:31.186Z,24.10
2023-01-15T17:44:00.376Z,22.20
2023-01-15T17:46:34.066Z,21.90
2023-01-15T17:49:05.841Z,20.00
2023-01-15T17:51:35.039Z,21.90
2023-01-15T17:54:04.647Z,21.80
2023-01-15T17:56:52.308Z,23.00
2023-01-15T17:59:47.686Z,21.90
2023-01-15T18:02:47.363Z,21.40
2023-01-15T18:05:32.983Z,18.90
2023-01-15T18:08:06.279Z,22.20
2023-01-15T18:10:35.374Z,28.00
2023-01-15T18:13:07.749Z,20.60
2023-01-15T18:15:36.126Z,19.80
2023-01-15T18:18:04.921Z,28.20
2023-01-15T18:20:34.120Z,20.10
2023-01-15T18:23:02.396Z,25.00
2023-01-15T18:25:31.904Z,21.30
2023-01-15T18:28:00.274Z,19.90
2023-01-15T18:30:29.274Z,23.10
2023-01-15T18:32:57.443Z,24.10
2023-01-15T18:35:25.726Z,20.50
2023-01-15T18:37:54.109Z,20.70
2023-01-15T18:40:27.500Z,19.50
2023-01-15T18:43:14.317Z,25.10
2023-01-15T18:46:05.427Z,21.70
2023-01-15T18:51:11.495Z,20.10
2023-01-15T18:53:39.675Z,21.10
2023-01-15T18:56:08.453Z,20.80
2023-01-15T18:58:36.741Z,18.20
2023-01-15T19:01:09.213Z,20.70
2023-01-15T19:03:37.690Z,18.10
2023-01-15T19:06:13.144Z,18.10
2023-01-15T19:08:41.333Z,23.70
2023-01-15T19:11:13.792Z,19.70
2023-01-15T19:13:42.068Z,22.60
2023-01-15T19:16:29.644Z,20.50
2023-01-15T19:18:58.075Z,21.80
2023-01-15T19:21:26.252Z,20.60
2023-01-15T19:23:54.423Z,20.50
2023-01-15T19:26:22.621Z,24.00
2023-01-15T19:28:50.903Z,21.50
2023-01-15T19:31:39.450Z,24.70
2023-01-15T19:34:32.584Z,19.60
2023-01-15T19:36:59.750Z,21.50
2023-01-15T19:39:29.295Z,23.70
2023-01-15T19:42:17.795Z,21.20
2023-01-15T19:45:04.709Z,19.50
2023-01-15T19:47:57.577Z,19.60
2023-01-15T19:50:46.698Z,18.70
2023-01-15T19:53:15.222Z,21.50
2023-01-15T19:55:45.969Z,21.00
2023-01-15T19:58:15.243Z,19.70
2023-01-15T20:00:48.595Z,22.30
2023-01-15T20:03:17.836Z,25.50
2023-01-15T20:05:47.404Z,21.00
2023-01-15T20:08:18.914Z,27.80
2023-01-15T20:10:50.045Z,24.30
2023-01-15T20:13:42.603Z,27.60
2023-01-15T20:16:18.614Z,25.80
2023-01-15T20:18:50.838Z,24.40
2023-01-15T20:21:19.714Z,27.60
2023-01-15T20:23:47.992Z,22.90
2023-01-15T20:26:17.489Z,26.10
2023-01-15T20:28:47.916Z,27.70
2023-01-15T20:31:18.724Z,25.30
2023-01-15T20:33:47.440Z,24.00
2023-01-15T20:36:16.130Z,27.60
2023-01-15T20:38:44.415Z,28.00
2023-01-15T20:41:31.318Z,23.30
2023-01-15T20:44:18.434Z,25.00
2023-01-15T20:46:46.708Z,24.90
2023-01-15T20:49:32.645Z,27.50
2023-01-15T20:52:01.596Z,28.70
2023-01-15T20:54:30.077Z,21.50
2023-01-15T20:56:58.458Z,22.70
2023-01-15T20:59:27.349Z,24.00
2023-01-15T21:01:55.574Z,24.20
2023-01-15T21:04:24.118Z,25.50
2023-01-15T21:06:52.488Z,25.80
2023-01-15T21:09:20.718Z,24.00
2023-01-15T21:11:49.151Z,26.60
2023-01-15T21:14:17.316Z,23.80
2023-01-15T21:16:45.637Z,23.90
2023-01-15T21:19:13.972Z,22.30
2023-01-15T21:21:42.249Z,25.30
2023-01-15T21:24:10.531Z,22.90
2023-01-15T21:26:38.911Z,20.30
2023-01-15T21:29:07.181Z,22.20
2023-01-15T21:31:35.493Z,22.90
2023-01-15T21:34:04.771Z,19.70
2023-01-15T21:36:33.240Z,20.90
2023-01-15T21:39:01.823Z,18.50
2023-01-15T21:41:49.554Z,22.00
2023-01-15T21:44:32.070Z,22.80
2023-01-15T21:47:01.685Z,23.50
2023-01-15T21:49:33.345Z,18.80
2023-01-15T21:52:03.780Z,22.60
2023-01-15T21:54:32.563Z,20.70
2023-01-15T21:57:01.343Z,20.40
2023-01-15T21:59:29.611Z,22.10
2023-01-15T22:01:59.643Z,22.00
2023-01-15T22:04:30.257Z,17.70
2023-01-15T22:06:58.447Z,23.10
2023-01-15T22:09:26.920Z,25.10
2023-01-15T22:11:55.197Z,23.30
2023-01-15T22:14:28.080Z,22.10
2023-01-15T22:16:59.080Z,22.70
2023-01-15T22:19:29.224Z,23.90
2023-01-15T22:22:09.302Z,25.40
2023-01-15T22:24:40.158Z,29.10
2023-01-15T22:27:12.398Z,28.10
2023-01-15T22:29:42.336Z,33.70
2023-01-15T22:32:13.384Z,29.80
2023-01-15T22:34:41.958Z,21.00
2023-01-15T22:37:13.191Z,24.30
2023-01-15T22:39:41.467Z,18.80
2023-01-15T22:42:24.693Z,26.20
2023-01-15T22:44:53.789Z,28.30
2023-01-15T22:47:22.168Z,18.80
2023-01-15T22:49:50.359Z,19.50
2023-01-15T22:52:19.337Z,20.70
2023-01-15T22:54:47.930Z,22.40
2023-01-15T22:57:17.422Z,28.00
2023-01-15T22:59:45.712Z,36.50
2023-01-15T23:02:14.378Z,26.40
2023-01-15T23:04:43.104Z,29.90
2023-01-15T23:07:11.465Z,31.50
2023-01-15T23:09:39.847Z,26.30
2023-01-15T23:12:08.415Z,29.40
2023-01-15T23:14:36.600Z,30.30
2023-01-15T23:17:05.081Z,28.00
2023-01-15T23:19:34.278Z,25.10
2023-01-15T23:22:02.446Z,24.50
2023-01-15T23:24:30.744Z,25.20
2023-01-15T23:26:58.999Z,24.10
2023-01-15T23:29:27.285Z,27.20
2023-01-15T23:31:55.569Z,23.80
2023-01-15T23:34:24.245Z,22.20
2023-01-15T23:36:52.620Z,19.60
2023-01-15T23:39:20.799Z,23.40
2023-01-15T23:42:07.707Z,23.50
2023-01-15T23:44:54.857Z,22.00
2023-01-15T23:47:23.102Z,23.00
2023-01-15T23:49:51.488Z,23.70
2023-01-15T23:52:20.476Z,22.10
2023-01-15T23:54:48.865Z,22.00
2023-01-15T23:57:17.343Z,26.70
2023-01-15T23:59:45.627Z,23.60
